sensor_id;sensor_type;location;lat;lon;timestamp;pressure;altitude;pressure_sealevel;temperature;humidity
60719;BME280;46567;51.660;5.824;2023-01-25T00:02:51;103680.0;;;2.3;82.5
60719;BME280;46567;51.660;5.824;2023-01-25T00:07:51;103690.0;;;2.3;83.0
60719;BME280;46567;51.660;5.824;2023-01-25T00:12:51;103690.0;;;2.3;83.0
60719;BME280;46567;51.660;5.824;2023-01-25T00:17:51;103670.0;;;2.3;83.5
60719;BME280;46567;51.660;5.824;2023-01-25T00:22:51;103670.0;;;2.3;83.5
60719;BME280;46567;51.660;5.824;2023-01-25T00:27:51;103660.0;;;2.2;83.0
60719;BME280;46567;51.660;5.824;2023-01-25T00:33:31;103670.0;;;2.1;83.0
60719;BME280;46567;51.660;5.824;2023-01-25T00:37:51;103660.0;;;2.1;83.0
60719;BME280;46567;51.660;5.824;2023-01-25T00:42:51;103650.0;;;2.1;83.5
60719;BME280;46567;51.660;5.824;2023-01-25T00:47:52;103650.0;;;2.1;83.0
60719;BME280;46567;51.660;5.824;2023-01-25T00:52:51;103650.0;;;2.1;83.5
60719;BME280;46567;51.660;5.824;2023-01-25T00:57:51;103650.0;;;2.1;83.5
60719;BME280;46567;51.660;5.824;2023-01-25T01:02:51;103660.0;;;2.1;83.5
60719;BME280;46567;51.660;5.824;2023-01-25T01:07:51;103640.0;;;2.1;83.0
60719;BME280;46567;51.660;5.824;2023-01-25T01:12:51;103650.0;;;2.1;83.0
60719;BME280;46567;51.660;5.824;2023-01-25T01:17:51;103650.0;;;2.0;83.0
60719;BME280;46567;51.660;5.824;2023-01-25T01:22:51;103650.0;;;2.0;83.5
60719;BME280;46567;51.660;5.824;2023-01-25T01:27:51;103650.0;;;2.0;83.0
60719;BME280;46567;51.660;5.824;2023-01-25T01:32:51;103650.0;;;1.9;83.0
60719;BME280;46567;51.660;5.824;2023-01-25T01:37:51;103650.0;;;1.9;83.5
60719;BME280;46567;51.660;5.824;2023-01-25T01:42:55;103650.0;;;2.0;83.5
60719;BME280;46567;51.660;5.824;2023-01-25T01:47:51;103640.0;;;2.0;83.5
60719;BME280;46567;51.660;5.824;2023-01-25T01:52:51;103640.0;;;2.0;83.5
60719;BME280;46567;51.660;5.824;2023-01-25T01:57:56;103650.0;;;2.1;83.5
60719;BME280;46567;51.660;5.824;2023-01-25T02:02:51;103640.0;;;2.1;84.0
60719;BME280;46567;51.660;5.824;2023-01-25T02:07:54;103640.0;;;2.2;84.0
60719;BME280;46567;51.660;5.824;2023-01-25T02:12:53;103640.0;;;2.1;83.0
60719;BME280;46567;51.660;5.824;2023-01-25T02:17:51;103630.0;;;2.1;83.5
60719;BME280;46567;51.660;5.824;2023-01-25T02:23:05;103630.0;;;2.0;83.5
60719;BME280;46567;51.660;5.824;2023-01-25T02:27:55;103630.0;;;2.1;83.5
60719;BME280;46567;51.660;5.824;2023-01-25T02:32:51;103620.0;;;2.1;83.5
60719;BME280;46567;51.660;5.824;2023-01-25T02:37:51;103610.0;;;2.1;83.5
60719;BME280;46567;51.660;5.824;2023-01-25T02:42:51;103610.0;;;2.1;83.5
60719;BME280;46567;51.660;5.824;2023-01-25T02:47:51;103610.0;;;2.0;83.5
60719;BME280;46567;51.660;5.824;2023-01-25T02:52:51;103610.0;;;2.0;83.5
60719;BME280;46567;51.660;5.824;2023-01-25T02:57:51;103600.0;;;2.0;83.5
60719;BME280;46567;51.660;5.824;2023-01-25T03:02:51;103610.0;;;2.0;83.5
60719;BME280;46567;51.660;5.824;2023-01-25T03:07:51;103600.0;;;2.0;84.0
60719;BME280;46567;51.660;5.824;2023-01-25T03:12:51;103600.0;;;2.1;84.0
60719;BME280;46567;51.660;5.824;2023-01-25T03:17:51;103590.0;;;2.0;83.5
60719;BME280;46567;51.660;5.824;2023-01-25T03:22:51;103590.0;;;2.0;83.5
60719;BME280;46567;51.660;5.824;2023-01-25T03:27:51;103590.0;;;2.0;83.5
60719;BME280;46567;51.660;5.824;2023-01-25T03:32:51;103580.0;;;2.0;84.0
60719;BME280;46567;51.660;5.824;2023-01-25T03:37:51;103570.0;;;2.0;83.5
60719;BME280;46567;51.660;5.824;2023-01-25T03:42:51;103570.0;;;2.0;83.5
60719;BME280;46567;51.660;5.824;2023-01-25T03:47:51;103570.0;;;2.0;83.5
60719;BME280;46567;51.660;5.824;2023-01-25T03:52:51;103560.0;;;1.9;83.5
60719;BME280;46567;51.660;5.824;2023-01-25T03:57:51;103570.0;;;1.9;83.0
60719;BME280;46567;51.660;5.824;2023-01-25T04:02:51;103560.0;;;1.9;83.5
60719;BME280;46567;51.660;5.824;2023-01-25T04:07:51;103570.0;;;1.8;83.5
60719;BME280;46567;51.660;5.824;2023-01-25T04:12:51;103550.0;;;1.9;83.5
60719;BME280;46567;51.660;5.824;2023-01-25T04:17:51;103550.0;;;1.9;83.5
60719;BME280;46567;51.660;5.824;2023-01-25T04:22:51;103540.0;;;1.9;83.5
60719;BME280;46567;51.660;5.824;2023-01-25T04:27:51;103540.0;;;1.8;83.5
60719;BME280;46567;51.660;5.824;2023-01-25T04:32:51;103540.0;;;1.8;83.5
60719;BME280;46567;51.660;5.824;2023-01-25T04:37:52;103540.0;;;1.9;83.5
60719;BME280;46567;51.660;5.824;2023-01-25T04:42:51;103530.0;;;1.8;83.5
60719;BME280;46567;51.660;5.824;2023-01-25T04:47:54;103540.0;;;1.9;83.5
60719;BME280;46567;51.660;5.824;2023-01-25T04:52:51;103530.0;;;1.9;83.5
60719;BME280;46567;51.660;5.824;2023-01-25T04:57:51;103520.0;;;1.9;84.0
60719;BME280;46567;51.660;5.824;2023-01-25T05:02:51;103530.0;;;1.9;84.0
60719;BME280;46567;51.660;5.824;2023-01-25T05:07:51;103510.0;;;1.8;83.5
60719;BME280;46567;51.660;5.824;2023-01-25T05:12:51;103510.0;;;1.8;84.0
60719;BME280;46567;51.660;5.824;2023-01-25T05:17:51;103510.0;;;1.8;84.0
60719;BME280;46567;51.660;5.824;2023-01-25T05:22:51;103510.0;;;1.7;83.5
60719;BME280;46567;51.660;5.824;2023-01-25T05:27:51;103510.0;;;1.7;83.5
60719;BME280;46567;51.660;5.824;2023-01-25T05:32:51;103510.0;;;1.7;83.5
60719;BME280;46567;51.660;5.824;2023-01-25T05:37:54;103510.0;;;1.7;84.0
60719;BME280;46567;51.660;5.824;2023-01-25T05:42:51;103510.0;;;1.7;84.0
60719;BME280;46567;51.660;5.824;2023-01-25T05:47:51;103510.0;;;1.7;84.0
60719;BME280;46567;51.660;5.824;2023-01-25T05:52:51;103510.0;;;1.7;84.0
60719;BME280;46567;51.660;5.824;2023-01-25T05:57:53;103510.0;;;1.7;84.0
60719;BME280;46567;51.660;5.824;2023-01-25T06:02:51;103510.0;;;1.7;83.5
60719;BME280;46567;51.660;5.824;2023-01-25T06:07:51;103510.0;;;1.7;83.5
60719;BME280;46567;51.660;5.824;2023-01-25T06:12:56;103500.0;;;1.7;84.0
60719;BME280;46567;51.660;5.824;2023-01-25T06:17:53;103510.0;;;1.7;84.0
60719;BME280;46567;51.660;5.824;2023-01-25T06:22:51;103500.0;;;1.7;83.5
60719;BME280;46567;51.660;5.824;2023-01-25T06:27:53;103500.0;;;1.6;83.5
60719;BME280;46567;51.660;5.824;2023-01-25T06:32:51;103500.0;;;1.6;83.5
60719;BME280;46567;51.660;5.824;2023-01-25T06:37:53;103490.0;;;1.6;83.5
60719;BME280;46567;51.660;5.824;2023-01-25T06:42:51;103490.0;;;1.5;83.5
60719;BME280;46567;51.660;5.824;2023-01-25T06:47:51;103500.0;;;1.5;83.5
60719;BME280;46567;51.660;5.824;2023-01-25T06:52:52;103500.0;;;1.5;83.5
60719;BME280;46567;51.660;5.824;2023-01-25T06:57:51;103490.0;;;1.4;83.5
60719;BME280;46567;51.660;5.824;2023-01-25T07:02:51;103500.0;;;1.4;83.5
60719;BME280;46567;51.660;5.824;2023-01-25T07:07:51;103500.0;;;1.5;84.0
60719;BME280;46567;51.660;5.824;2023-01-25T07:12:51;103490.0;;;1.5;84.0
60719;BME280;46567;51.660;5.824;2023-01-25T07:17:51;103490.0;;;1.5;84.0
60719;BME280;46567;51.660;5.824;2023-01-25T07:22:51;103490.0;;;1.5;84.0
60719;BME280;46567;51.660;5.824;2023-01-25T07:27:51;103480.0;;;1.5;84.0
60719;BME280;46567;51.660;5.824;2023-01-25T07:32:51;103490.0;;;1.6;83.5
60719;BME280;46567;51.660;5.824;2023-01-25T07:37:51;103480.0;;;1.5;83.5
60719;BME280;46567;51.660;5.824;2023-01-25T07:42:51;103470.0;;;1.5;84.0
60719;BME280;46567;51.660;5.824;2023-01-25T07:47:51;103470.0;;;1.5;84.0
60719;BME280;46567;51.660;5.824;2023-01-25T07:52:51;103480.0;;;1.5;84.0
60719;BME280;46567;51.660;5.824;2023-01-25T07:57:53;103470.0;;;1.5;84.0
60719;BME280;46567;51.660;5.824;2023-01-25T08:02:51;103480.0;;;1.5;84.0
60719;BME280;46567;51.660;5.824;2023-01-25T08:07:51;103480.0;;;1.5;84.0
60719;BME280;46567;51.660;5.824;2023-01-25T08:12:51;103470.0;;;1.5;83.5
60719;BME280;46567;51.660;5.824;2023-01-25T08:17:51;103470.0;;;1.4;83.5
60719;BME280;46567;51.660;5.824;2023-01-25T08:22:51;103470.0;;;1.5;84.0
60719;BME280;46567;51.660;5.824;2023-01-25T08:27:52;103470.0;;;1.5;84.0
60719;BME280;46567;51.660;5.824;2023-01-25T08:32:51;103460.0;;;1.5;84.0
60719;BME280;46567;51.660;5.824;2023-01-25T08:37:51;103460.0;;;1.5;84.0
60719;BME280;46567;51.660;5.824;2023-01-25T08:42:51;103460.0;;;1.5;84.0
60719;BME280;46567;51.660;5.824;2023-01-25T08:47:51;103460.0;;;1.6;84.0
60719;BME280;46567;51.660;5.824;2023-01-25T08:52:51;103460.0;;;1.6;84.0
60719;BME280;46567;51.660;5.824;2023-01-25T08:57:51;103450.0;;;1.6;84.0
60719;BME280;46567;51.660;5.824;2023-01-25T09:02:51;103450.0;;;1.6;84.0
60719;BME280;46567;51.660;5.824;2023-01-25T09:07:51;103440.0;;;1.6;84.0
60719;BME280;46567;51.660;5.824;2023-01-25T09:12:51;103420.0;;;1.7;83.5
60719;BME280;46567;51.660;5.824;2023-01-25T09:17:51;103430.0;;;1.6;84.0
60719;BME280;46567;51.660;5.824;2023-01-25T09:22:51;103430.0;;;1.7;84.0
60719;BME280;46567;51.660;5.824;2023-01-25T09:27:51;103430.0;;;1.7;84.0
60719;BME280;46567;51.660;5.824;2023-01-25T09:32:51;103420.0;;;1.7;83.5
60719;BME280;46567;51.660;5.824;2023-01-25T09:37:51;103430.0;;;1.7;83.5
60719;BME280;46567;51.660;5.824;2023-01-25T09:43:04;103420.0;;;1.6;83.5
60719;BME280;46567;51.660;5.824;2023-01-25T09:48:03;103420.0;;;1.6;83.5
60719;BME280;46567;51.660;5.824;2023-01-25T09:53:38;103420.0;;;1.6;84.0
60719;BME280;46567;51.660;5.824;2023-01-25T09:57:54;103430.0;;;1.7;84.0
60719;BME280;46567;51.660;5.824;2023-01-25T10:03:00;103420.0;;;1.7;83.5
60719;BME280;46567;51.660;5.824;2023-01-25T10:08:18;103420.0;;;1.6;83.5
60719;BME280;46567;51.660;5.824;2023-01-25T10:12:51;103420.0;;;1.7;83.5
60719;BME280;46567;51.660;5.824;2023-01-25T10:17:55;103410.0;;;1.7;83.5
60719;BME280;46567;51.660;5.824;2023-01-25T10:23:23;103410.0;;;1.7;84.0
60719;BME280;46567;51.660;5.824;2023-01-25T10:28:25;103400.0;;;1.8;83.5
60719;BME280;46567;51.660;5.824;2023-01-25T10:32:51;103400.0;;;1.8;83.5
60719;BME280;46567;51.660;5.824;2023-01-25T10:37:51;103390.0;;;1.9;83.5
60719;BME280;46567;51.660;5.824;2023-01-25T10:42:53;103390.0;;;1.9;83.5
60719;BME280;46567;51.660;5.824;2023-01-25T10:47:54;103370.0;;;1.9;83.5
60719;BME280;46567;51.660;5.824;2023-01-25T10:52:57;103350.0;;;1.9;83.5
60719;BME280;46567;51.660;5.824;2023-01-25T10:57:55;103340.0;;;2.0;83.5
60719;BME280;46567;51.660;5.824;2023-01-25T11:02:52;103330.0;;;1.9;83.5
60719;BME280;46567;51.660;5.824;2023-01-25T11:07:51;103320.0;;;2.0;83.5
60719;BME280;46567;51.660;5.824;2023-01-25T11:13:15;103310.0;;;2.0;83.5
60719;BME280;46567;51.660;5.824;2023-01-25T11:18:05;103290.0;;;2.0;83.5
60719;BME280;46567;51.660;5.824;2023-01-25T11:22:53;103290.0;;;2.0;83.5
60719;BME280;46567;51.660;5.824;2023-01-25T11:28:15;103280.0;;;2.0;83.0
60719;BME280;46567;51.660;5.824;2023-01-25T11:32:51;103260.0;;;1.9;83.0
60719;BME280;46567;51.660;5.824;2023-01-25T11:38:22;103250.0;;;2.0;83.5
60719;BME280;46567;51.660;5.824;2023-01-25T11:43:28;103240.0;;;2.1;84.0
60719;BME280;46567;51.660;5.824;2023-01-25T11:50:23;103240.0;;;2.1;83.5
60719;BME280;46567;51.660;5.824;2023-01-25T11:55:20;103220.0;;;2.2;83.5
60719;BME280;46567;51.660;5.824;2023-01-25T12:00:41;103210.0;;;2.1;83.0
60719;BME280;46567;51.660;5.824;2023-01-25T12:07:07;103200.0;;;2.0;83.0
60719;BME280;46567;51.660;5.824;2023-01-25T12:12:24;103190.0;;;2.0;83.0
60719;BME280;46567;51.660;5.824;2023-01-25T12:19:09;103180.0;;;2.1;83.5
60719;BME280;46567;51.660;5.824;2023-01-25T12:25:08;103160.0;;;2.1;83.5
60719;BME280;46567;51.660;5.824;2023-01-25T12:29:48;103150.0;;;2.1;83.0
60719;BME280;46567;51.660;5.824;2023-01-25T12:33:35;103140.0;;;2.0;83.0
60719;BME280;46567;51.660;5.824;2023-01-25T12:36:50;103120.0;;;2.0;83.0
60719;BME280;46567;51.660;5.824;2023-01-25T12:39:49;103120.0;;;2.0;83.0
60719;BME280;46567;51.660;5.824;2023-01-25T12:43:01;103110.0;;;1.9;83.0
60719;BME280;46567;51.660;5.824;2023-01-25T12:47:54;103100.0;;;1.9;83.0
60719;BME280;46567;51.660;5.824;2023-01-25T12:52:53;103080.0;;;2.0;83.5
60719;BME280;46567;51.660;5.824;2023-01-25T12:57:56;103080.0;;;2.0;83.5
60719;BME280;46567;51.660;5.824;2023-01-25T13:03:34;103070.0;;;2.0;83.0
60719;BME280;46567;51.660;5.824;2023-01-25T13:08:59;103060.0;;;2.0;83.0
60719;BME280;46567;51.660;5.824;2023-01-25T13:12:52;103060.0;;;1.9;83.0
60719;BME280;46567;51.660;5.824;2023-01-25T13:17:51;103050.0;;;1.9;83.0
60719;BME280;46567;51.660;5.824;2023-01-25T13:22:59;103050.0;;;1.9;83.0
60719;BME280;46567;51.660;5.824;2023-01-25T13:27:51;103040.0;;;1.8;82.5
60719;BME280;46567;51.660;5.824;2023-01-25T13:32:59;103040.0;;;1.7;83.0
60719;BME280;46567;51.660;5.824;2023-01-25T13:37:59;103040.0;;;1.8;83.0
60719;BME280;46567;51.660;5.824;2023-01-25T13:42:57;103020.0;;;1.7;83.0
60719;BME280;46567;51.660;5.824;2023-01-25T13:48:10;103020.0;;;1.7;82.5
60719;BME280;46567;51.660;5.824;2023-01-25T13:53:03;103020.0;;;1.6;83.0
60719;BME280;46567;51.660;5.824;2023-01-25T13:57:51;103000.0;;;1.6;83.0
60719;BME280;46567;51.660;5.824;2023-01-25T14:02:53;102980.0;;;1.6;83.0
60719;BME280;46567;51.660;5.824;2023-01-25T14:07:54;102980.0;;;1.7;83.5
60719;BME280;46567;51.660;5.824;2023-01-25T14:12:53;102990.0;;;1.7;83.0
60719;BME280;46567;51.660;5.824;2023-01-25T14:18:03;102990.0;;;1.7;83.0
60719;BME280;46567;51.660;5.824;2023-01-25T14:22:51;103000.0;;;1.7;83.5
60719;BME280;46567;51.660;5.824;2023-01-25T14:27:58;102990.0;;;1.7;83.5
60719;BME280;46567;51.660;5.824;2023-01-25T14:32:53;102990.0;;;1.7;83.0
60719;BME280;46567;51.660;5.824;2023-01-25T14:37:51;103000.0;;;1.7;83.0
60719;BME280;46567;51.660;5.824;2023-01-25T14:42:52;102990.0;;;1.6;83.0
60719;BME280;46567;51.660;5.824;2023-01-25T14:47:51;102980.0;;;1.5;83.0
60719;BME280;46567;51.660;5.824;2023-01-25T14:52:51;102980.0;;;1.6;83.5
60719;BME280;46567;51.660;5.824;2023-01-25T14:57:51;102970.0;;;1.6;83.5
60719;BME280;46567;51.660;5.824;2023-01-25T15:02:54;102960.0;;;1.6;83.5
60719;BME280;46567;51.660;5.824;2023-01-25T15:07:52;102950.0;;;1.5;83.0
60719;BME280;46567;51.660;5.824;2023-01-25T15:13:02;102960.0;;;1.5;83.5
60719;BME280;46567;51.660;5.824;2023-01-25T15:17:51;102950.0;;;1.6;83.5
60719;BME280;46567;51.660;5.824;2023-01-25T15:22:51;102950.0;;;1.5;83.5
60719;BME280;46567;51.660;5.824;2023-01-25T15:27:51;102950.0;;;1.5;83.0
60719;BME280;46567;51.660;5.824;2023-01-25T15:32:51;102950.0;;;1.4;83.5
60719;BME280;46567;51.660;5.824;2023-01-25T15:37:51;102930.0;;;1.4;83.5
60719;BME280;46567;51.660;5.824;2023-01-25T15:42:51;102930.0;;;1.4;83.5
60719;BME280;46567;51.660;5.824;2023-01-25T15:47:51;102940.0;;;1.3;83.5
60719;BME280;46567;51.660;5.824;2023-01-25T15:52:51;102930.0;;;1.3;83.5
60719;BME280;46567;51.660;5.824;2023-01-25T15:57:51;102930.0;;;1.3;83.5
60719;BME280;46567;51.660;5.824;2023-01-25T16:02:51;102940.0;;;1.2;83.5
60719;BME280;46567;51.660;5.824;2023-01-25T16:07:51;102930.0;;;1.2;83.5
60719;BME280;46567;51.660;5.824;2023-01-25T16:12:51;102930.0;;;1.2;83.5
60719;BME280;46567;51.660;5.824;2023-01-25T16:17:51;102920.0;;;1.2;83.5
60719;BME280;46567;51.660;5.824;2023-01-25T16:22:51;102920.0;;;1.1;83.5
60719;BME280;46567;51.660;5.824;2023-01-25T16:27:51;102910.0;;;1.0;83.5
60719;BME280;46567;51.660;5.824;2023-01-25T16:32:51;102920.0;;;0.9;83.5
60719;BME280;46567;51.660;5.824;2023-01-25T16:37:51;102930.0;;;0.8;83.5
60719;BME280;46567;51.660;5.824;2023-01-25T16:42:51;102930.0;;;0.9;84.0
60719;BME280;46567;51.660;5.824;2023-01-25T16:47:51;102920.0;;;0.9;84.0
60719;BME280;46567;51.660;5.824;2023-01-25T16:52:51;102940.0;;;0.9;83.5
60719;BME280;46567;51.660;5.824;2023-01-25T16:57:51;102930.0;;;0.8;84.0
60719;BME280;46567;51.660;5.824;2023-01-25T17:02:51;102930.0;;;0.8;84.0
60719;BME280;46567;51.660;5.824;2023-01-25T17:07:51;102930.0;;;0.7;84.0
60719;BME280;46567;51.660;5.824;2023-01-25T17:12:51;102940.0;;;0.7;84.0
60719;BME280;46567;51.660;5.824;2023-01-25T17:17:51;102920.0;;;0.6;84.0
60719;BME280;46567;51.660;5.824;2023-01-25T17:22:51;102920.0;;;0.6;84.0
60719;BME280;46567;51.660;5.824;2023-01-25T17:27:51;102900.0;;;0.6;84.0
60719;BME280;46567;51.660;5.824;2023-01-25T17:32:51;102890.0;;;0.6;84.0
60719;BME280;46567;51.660;5.824;2023-01-25T17:37:52;102890.0;;;0.6;84.5
60719;BME280;46567;51.660;5.824;2023-01-25T17:42:51;102860.0;;;0.6;84.5
60719;BME280;46567;51.660;5.824;2023-01-25T17:47:51;102860.0;;;0.6;84.5
60719;BME280;46567;51.660;5.824;2023-01-25T17:52:51;102850.0;;;0.6;84.5
60719;BME280;46567;51.660;5.824;2023-01-25T17:57:51;102840.0;;;0.5;84.5
60719;BME280;46567;51.660;5.824;2023-01-25T18:02:51;102830.0;;;0.5;84.5
60719;BME280;46567;51.660;5.824;2023-01-25T18:07:51;102820.0;;;0.5;84.5
60719;BME280;46567;51.660;5.824;2023-01-25T18:12:51;102810.0;;;0.4;84.5
60719;BME280;46567;51.660;5.824;2023-01-25T18:17:51;102790.0;;;0.5;85.0
60719;BME280;46567;51.660;5.824;2023-01-25T18:22:51;102780.0;;;0.5;84.5
60719;BME280;46567;51.660;5.824;2023-01-25T18:27:51;102760.0;;;0.5;85.0
60719;BME280;46567;51.660;5.824;2023-01-25T18:32:51;102750.0;;;0.5;85.0
60719;BME280;46567;51.660;5.824;2023-01-25T18:37:51;102750.0;;;0.5;85.0
60719;BME280;46567;51.660;5.824;2023-01-25T18:42:51;102750.0;;;0.6;85.0
60719;BME280;46567;51.660;5.824;2023-01-25T18:47:51;102760.0;;;0.5;85.0
60719;BME280;46567;51.660;5.824;2023-01-25T18:52:51;102770.0;;;0.5;85.0
60719;BME280;46567;51.660;5.824;2023-01-25T18:57:51;102760.0;;;0.5;85.0
60719;BME280;46567;51.660;5.824;2023-01-25T19:02:51;102760.0;;;0.6;85.0
60719;BME280;46567;51.660;5.824;2023-01-25T19:07:51;102740.0;;;0.6;85.0
60719;BME280;46567;51.660;5.824;2023-01-25T19:12:51;102720.0;;;0.6;85.0
60719;BME280;46567;51.660;5.824;2023-01-25T19:17:51;102720.0;;;0.6;85.0
60719;BME280;46567;51.660;5.824;2023-01-25T19:22:52;102730.0;;;0.6;85.0
60719;BME280;46567;51.660;5.824;2023-01-25T19:27:51;102730.0;;;0.7;85.0
60719;BME280;46567;51.660;5.824;2023-01-25T19:32:51;102740.0;;;0.6;85.0
60719;BME280;46567;51.660;5.824;2023-01-25T19:37:51;102730.0;;;0.6;85.0
60719;BME280;46567;51.660;5.824;2023-01-25T19:42:51;102710.0;;;0.5;85.0
60719;BME280;46567;51.660;5.824;2023-01-25T19:47:51;102700.0;;;0.5;85.0
60719;BME280;46567;51.660;5.824;2023-01-25T19:52:51;102710.0;;;0.5;85.5
60719;BME280;46567;51.660;5.824;2023-01-25T19:57:51;102710.0;;;0.5;85.5
60719;BME280;46567;51.660;5.824;2023-01-25T20:02:51;102700.0;;;0.6;85.5
60719;BME280;46567;51.660;5.824;2023-01-25T20:07:51;102690.0;;;0.6;85.5
60719;BME280;46567;51.660;5.824;2023-01-25T20:12:51;102690.0;;;0.6;85.5
60719;BME280;46567;51.660;5.824;2023-01-25T20:17:51;102690.0;;;0.6;85.0
60719;BME280;46567;51.660;5.824;2023-01-25T20:22:51;102670.0;;;0.5;85.0
60719;BME280;46567;51.660;5.824;2023-01-25T20:27:51;102670.0;;;0.4;85.0
60719;BME280;46567;51.660;5.824;2023-01-25T20:32:51;102670.0;;;0.4;85.5
60719;BME280;46567;51.660;5.824;2023-01-25T20:37:51;102670.0;;;0.5;85.5
60719;BME280;46567;51.660;5.824;2023-01-25T20:42:51;102640.0;;;0.5;85.5
60719;BME280;46567;51.660;5.824;2023-01-25T20:47:51;102640.0;;;0.5;85.5
60719;BME280;46567;51.660;5.824;2023-01-25T20:52:51;102650.0;;;0.5;85.5
60719;BME280;46567;51.660;5.824;2023-01-25T20:57:51;102650.0;;;0.6;86.0
60719;BME280;46567;51.660;5.824;2023-01-25T21:02:51;102650.0;;;0.6;86.0
60719;BME280;46567;51.660;5.824;2023-01-25T21:07:51;102640.0;;;0.6;86.0
60719;BME280;46567;51.660;5.824;2023-01-25T21:12:51;102640.0;;;0.5;86.0
60719;BME280;46567;51.660;5.824;2023-01-25T21:17:51;102630.0;;;0.5;86.0
60719;BME280;46567;51.660;5.824;2023-01-25T21:22:51;102620.0;;;0.4;86.0
60719;BME280;46567;51.660;5.824;2023-01-25T21:27:51;102610.0;;;0.4;86.0
60719;BME280;46567;51.660;5.824;2023-01-25T21:32:51;102610.0;;;0.4;86.5
60719;BME280;46567;51.660;5.824;2023-01-25T21:37:51;102590.0;;;0.4;86.5
60719;BME280;46567;51.660;5.824;2023-01-25T21:42:51;102590.0;;;0.4;86.5
60719;BME280;46567;51.660;5.824;2023-01-25T21:47:55;102590.0;;;0.4;86.5
60719;BME280;46567;51.660;5.824;2023-01-25T21:52:51;102590.0;;;0.4;87.0
60719;BME280;46567;51.660;5.824;2023-01-25T21:57:51;102580.0;;;0.4;87.0
60719;BME280;46567;51.660;5.824;2023-01-25T22:02:51;102580.0;;;0.4;87.0
60719;BME280;46567;51.660;5.824;2023-01-25T22:07:51;102580.0;;;0.4;87.0
60719;BME280;46567;51.660;5.824;2023-01-25T22:12:51;102590.0;;;0.4;87.0
60719;BME280;46567;51.660;5.824;2023-01-25T22:17:51;102580.0;;;0.5;87.0
60719;BME280;46567;51.660;5.824;2023-01-25T22:22:51;102580.0;;;0.4;87.0
60719;BME280;46567;51.660;5.824;2023-01-25T22:27:59;102580.0;;;0.4;87.0
60719;BME280;46567;51.660;5.824;2023-01-25T22:32:51;102580.0;;;0.4;87.0
60719;BME280;46567;51.660;5.824;2023-01-25T22:37:51;102570.0;;;0.4;87.5
60719;BME280;46567;51.660;5.824;2023-01-25T22:42:51;102570.0;;;0.4;87.0
60719;BME280;46567;51.660;5.824;2023-01-25T22:47:51;102570.0;;;0.4;87.5
60719;BME280;46567;51.660;5.824;2023-01-25T22:52:51;102570.0;;;0.4;87.5
60719;BME280;46567;51.660;5.824;2023-01-25T22:57:51;102570.0;;;0.5;87.5
60719;BME280;46567;51.660;5.824;2023-01-25T23:02:51;102560.0;;;0.5;87.5
60719;BME280;46567;51.660;5.824;2023-01-25T23:07:51;102560.0;;;0.5;88.0
60719;BME280;46567;51.660;5.824;2023-01-25T23:12:51;102550.0;;;0.5;88.0
60719;BME280;46567;51.660;5.824;2023-01-25T23:17:51;102560.0;;;0.6;88.0
60719;BME280;46567;51.660;5.824;2023-01-25T23:22:51;102560.0;;;0.6;88.0
60719;BME280;46567;51.660;5.824;2023-01-25T23:27:51;102550.0;;;0.6;88.0
60719;BME280;46567;51.660;5.824;2023-01-25T23:32:51;102530.0;;;0.6;88.0
60719;BME280;46567;51.660;5.824;2023-01-25T23:37:51;102530.0;;;0.5;88.0
60719;BME280;46567;51.660;5.824;2023-01-25T23:42:51;102520.0;;;0.5;88.0
60719;BME280;46567;51.660;5.824;2023-01-25T23:47:51;102520.0;;;0.5;88.0
60719;BME280;46567;51.660;5.824;2023-01-25T23:52:51;102520.0;;;0.5;88.5
60719;BME280;46567;51.660;5.824;2023-01-25T23:57:51;102510.0;;;0.5;88.5
